Time;durP1;ratioP1;P1;durP2;ratioP2;P2;SDS_P1;SDS_P2;PMS_P1;PMS_P2;Temp;Humidity;BMP_temperature;BMP_pressure;BME280_temperature;BME280_humidity;BME280_pressure;Samples;Min_cycle;Max_cycle;Signal;HPM_P1;HPM_P2
2022/05/16 00:02:19;;;;;;;2.30;1.60;;;;;;;;;;5033591;28;20053;-68
2022/05/16 00:04:48;;;;;;;1.50;1.40;;;;;;;;;;5033894;28;20049;-69
2022/05/16 00:07:15;;;;;;;4.25;1.77;;;;;;;;;;5033637;28;20505;-69
2022/05/16 00:09:41;;;;;;;3.50;1.80;;;;;;;;;;5048967;28;20049;-69
2022/05/16 00:12:09;;;;;;;4.15;1.88;;;;;;;;;;5033506;28;20107;-68
2022/05/16 00:14:37;;;;;;;2.60;1.83;;;;;;;;;;5033528;28;20053;-68
2022/05/16 00:17:04;;;;;;;4.40;1.65;;;;;;;;;;5033512;28;20046;-69
2022/05/16 00:19:30;;;;;;;2.33;1.63;;;;;;;;;;5033670;28;20049;-70
2022/05/16 00:21:58;;;;;;;3.05;2.35;;;;;;;;;;5033430;28;20050;-68
2022/05/16 00:24:26;;;;;;;3.08;1.92;;;;;;;;;;5033450;28;20168;-69
2022/05/16 00:26:53;;;;;;;3.53;2.33;;;;;;;;;;5032662;28;20049;-69
2022/05/16 00:29:20;;;;;;;3.28;1.63;;;;;;;;;;5033225;28;20061;-68
2022/05/16 00:31:47;;;;;;;3.15;1.88;;;;;;;;;;5033303;28;20049;-69
2022/05/16 00:34:14;;;;;;;3.75;1.85;;;;;;;;;;5033201;28;20190;-68
2022/05/16 00:36:47;;;;;;;4.50;2.00;;;;;;;;;;5033111;28;20082;-68
2022/05/16 00:39:18;;;;;;;5.07;1.90;;;;;;;;;;5033070;28;20053;-68
2022/05/16 00:41:46;;;;;;;4.82;2.17;;;;;;;;;;5032978;28;20053;-68
2022/05/16 00:44:13;;;;;;;3.05;1.80;;;;;;;;;;5032511;28;20052;-69
2022/05/16 00:46:40;;;;;;;1.70;1.60;;;;;;;;;;5032890;28;20060;-68
2022/05/16 00:49:11;;;;;;;4.55;1.92;;;;;;;;;;5033072;28;20104;-68
2022/05/16 00:51:42;;;;;;;2.90;1.80;;;;;;;;;;5048222;28;20107;-68
2022/05/16 00:54:11;;;;;;;3.15;2.03;;;;;;;;;;5032083;28;20049;-68
2022/05/16 00:56:38;;;;;;;5.40;2.25;;;;;;;;;;5031802;28;20153;-69
2022/05/16 00:59:04;;;;;;;5.25;2.05;;;;;;;;;;5031368;28;20060;-69
2022/05/16 01:04:48;;;;;;;4.60;2.20;;;;;;;;;;5001938;28;20061;-68
2022/05/16 01:07:30;;;;;;;3.00;1.83;;;;;;;;;;4990789;28;20043;-69
2022/05/16 01:09:56;;;;;;;8.00;2.30;;;;;;;;;;5011043;28;20522;-69
2022/05/16 01:12:28;;;;;;;2.17;1.98;;;;;;;;;;5031217;28;20123;-69
2022/05/16 01:14:57;;;;;;;2.95;1.90;;;;;;;;;;5031292;28;20057;-68
2022/05/16 01:17:23;;;;;;;2.63;1.83;;;;;;;;;;5032210;28;20049;-69
2022/05/16 01:19:50;;;;;;;2.78;1.95;;;;;;;;;;5032612;28;20278;-69
2022/05/16 01:22:42;;;;;;;2.20;1.98;;;;;;;;;;5047596;28;20049;-68
2022/05/16 01:25:13;;;;;;;2.55;1.85;;;;;;;;;;5033101;28;20091;-69
2022/05/16 01:27:57;;;;;;;3.22;2.47;;;;;;;;;;5031923;28;20045;-69
2022/05/16 01:30:27;;;;;;;3.47;1.73;;;;;;;;;;5032103;28;20472;-70
2022/05/16 01:32:54;;;;;;;5.22;2.15;;;;;;;;;;5032110;28;20053;-69
2022/05/16 01:35:24;;;;;;;4.53;2.35;;;;;;;;;;5032093;28;20053;-69
2022/05/16 01:40:37;;;;;;;4.50;2.08;;;;;;;;;;5032059;28;20045;-69
2022/05/16 01:43:04;;;;;;;6.25;2.28;;;;;;;;;;5031905;28;20056;-69
2022/05/16 01:45:31;;;;;;;2.08;1.73;;;;;;;;;;5032097;28;20081;-69
2022/05/16 01:47:58;;;;;;;2.58;1.98;;;;;;;;;;5031693;28;20111;-69
2022/05/16 01:50:24;;;;;;;4.53;2.10;;;;;;;;;;5031896;28;20045;-69
2022/05/16 01:52:51;;;;;;;6.20;2.63;;;;;;;;;;5031534;28;20053;-69
2022/05/16 01:55:18;;;;;;;3.38;1.80;;;;;;;;;;5032072;28;20071;-69
2022/05/16 01:57:45;;;;;;;3.13;2.05;;;;;;;;;;5031653;28;20045;-69
2022/05/16 02:00:13;;;;;;;3.17;1.95;;;;;;;;;;5031889;28;20126;-69
2022/05/16 02:02:42;;;;;;;5.07;1.83;;;;;;;;;;5031688;28;20126;-69
2022/05/16 02:05:10;;;;;;;2.20;1.77;;;;;;;;;;5031687;28;20060;-68
2022/05/16 02:07:37;;;;;;;5.00;2.60;;;;;;;;;;5031636;28;20196;-69
2022/05/16 02:10:06;;;;;;;5.15;1.77;;;;;;;;;;5031691;28;20108;-68
2022/05/16 02:12:33;;;;;;;2.22;1.98;;;;;;;;;;5031541;28;20050;-69
2022/05/16 02:15:01;;;;;;;2.78;1.80;;;;;;;;;;5031563;28;20045;-69
2022/05/16 02:17:28;;;;;;;3.47;1.90;;;;;;;;;;5031580;28;20049;-69
2022/05/16 02:19:55;;;;;;;2.30;2.10;;;;;;;;;;5031519;28;20104;-69
2022/05/16 02:25:07;;;;;;;2.58;2.13;;;;;;;;;;5031569;28;20049;-68
2022/05/16 02:27:34;;;;;;;3.45;2.05;;;;;;;;;;5031376;28;20263;-70
2022/05/16 02:30:00;;;;;;;2.08;1.83;;;;;;;;;;5031533;28;20504;-69
2022/05/16 02:32:27;;;;;;;5.40;2.40;;;;;;;;;;5031804;28;20050;-69
2022/05/16 02:34:55;;;;;;;3.90;1.75;;;;;;;;;;5032560;28;20678;-69
2022/05/16 02:37:22;;;;;;;2.65;1.65;;;;;;;;;;5031469;28;20050;-69
2022/05/16 02:39:48;;;;;;;1.95;1.60;;;;;;;;;;5031492;28;20049;-68
2022/05/16 02:42:15;;;;;;;4.07;2.17;;;;;;;;;;5031291;28;20496;-69
2022/05/16 02:44:42;;;;;;;2.08;1.83;;;;;;;;;;5031285;28;20057;-69
2022/05/16 02:47:18;;;;;;;2.90;2.20;;;;;;;;;;5031029;28;20049;-69
2022/05/16 02:49:44;;;;;;;3.03;1.95;;;;;;;;;;5034360;28;20057;-68
2022/05/16 02:52:11;;;;;;;3.10;2.38;;;;;;;;;;5034893;28;20057;-69
2022/05/16 02:54:43;;;;;;;2.47;1.65;;;;;;;;;;5035165;28;20084;-68
2022/05/16 02:57:10;;;;;;;3.13;1.90;;;;;;;;;;5034881;28;20056;-69
2022/05/16 02:59:38;;;;;;;2.75;1.90;;;;;;;;;;5035042;28;20103;-68
2022/05/16 03:02:06;;;;;;;2.90;2.28;;;;;;;;;;5034703;28;20504;-69
2022/05/16 03:04:33;;;;;;;4.53;2.30;;;;;;;;;;5034994;28;20420;-69
2022/05/16 03:07:00;;;;;;;3.42;2.05;;;;;;;;;;5034832;28;20045;-69
2022/05/16 03:09:28;;;;;;;3.45;2.03;;;;;;;;;;5034681;28;20088;-69
2022/05/16 03:11:54;;;;;;;2.85;1.88;;;;;;;;;;5034491;28;20444;-69
2022/05/16 03:14:21;;;;;;;2.45;1.80;;;;;;;;;;5034622;28;20052;-68
2022/05/16 03:16:48;;;;;;;2.33;2.00;;;;;;;;;;5034738;28;20046;-69
2022/05/16 03:19:15;;;;;;;2.90;1.70;;;;;;;;;;5034667;28;20049;-68
2022/05/16 03:21:42;;;;;;;2.28;2.08;;;;;;;;;;5034426;28;20061;-69
2022/05/16 03:24:09;;;;;;;4.95;1.83;;;;;;;;;;5034437;28;20049;-69
2022/05/16 03:26:36;;;;;;;3.72;1.85;;;;;;;;;;5034235;28;20041;-68
2022/05/16 03:29:03;;;;;;;3.67;1.90;;;;;;;;;;5034306;28;20056;-69
2022/05/16 03:31:29;;;;;;;4.53;2.22;;;;;;;;;;5034325;28;20053;-69
2022/05/16 03:33:56;;;;;;;5.25;2.33;;;;;;;;;;5034403;28;20056;-69
2022/05/16 03:36:23;;;;;;;3.55;1.80;;;;;;;;;;5034328;28;20454;-69
2022/05/16 03:41:35;;;;;;;4.95;2.10;;;;;;;;;;5034235;28;20049;-69
2022/05/16 03:44:02;;;;;;;3.90;2.00;;;;;;;;;;5034065;28;20049;-69
2022/05/16 03:46:28;;;;;;;2.80;2.03;;;;;;;;;;5034400;28;20049;-69
2022/05/16 03:48:55;;;;;;;3.05;2.40;;;;;;;;;;5056680;22;20050;-68
2022/05/16 03:51:22;;;;;;;3.28;2.42;;;;;;;;;;5033702;28;20057;-68
2022/05/16 03:53:48;;;;;;;3.60;2.17;;;;;;;;;;5033817;28;20488;-69
2022/05/16 03:56:23;;;;;;;3.25;2.30;;;;;;;;;;5033935;28;20496;-68
2022/05/16 03:58:50;;;;;;;4.72;2.33;;;;;;;;;;5033779;28;20270;-68
2022/05/16 04:01:16;;;;;;;4.68;2.20;;;;;;;;;;5032694;28;20060;-68
2022/05/16 04:03:44;;;;;;;6.82;2.90;;;;;;;;;;5033744;28;20045;-68
2022/05/16 04:06:11;;;;;;;3.28;2.05;;;;;;;;;;5033553;28;20050;-68
2022/05/16 04:08:37;;;;;;;3.10;2.00;;;;;;;;;;5033727;28;20046;-68
2022/05/16 04:11:04;;;;;;;3.03;2.00;;;;;;;;;;5033606;28;20053;-68
2022/05/16 04:13:32;;;;;;;6.95;2.55;;;;;;;;;;5033662;28;20050;-68
2022/05/16 04:15:59;;;;;;;4.63;2.20;;;;;;;;;;5034035;28;20045;-68
2022/05/16 04:18:36;;;;;;;2.72;2.15;;;;;;;;;;5033346;28;20095;-68
2022/05/16 04:21:04;;;;;;;4.18;2.08;;;;;;;;;;5033607;28;20478;-69
2022/05/16 04:23:31;;;;;;;3.92;2.00;;;;;;;;;;5033241;28;20049;-69
2022/05/16 04:25:57;;;;;;;4.40;2.20;;;;;;;;;;5033445;28;20057;-68
2022/05/16 04:28:24;;;;;;;6.10;2.15;;;;;;;;;;5033263;28;20049;-68
2022/05/16 04:30:50;;;;;;;6.05;2.55;;;;;;;;;;5033058;28;20053;-68
2022/05/16 04:33:18;;;;;;;6.20;2.33;;;;;;;;;;5033061;28;20075;-68
2022/05/16 04:35:44;;;;;;;4.55;2.22;;;;;;;;;;5033365;28;20053;-68
2022/05/16 04:38:11;;;;;;;3.47;2.20;;;;;;;;;;5032888;28;20061;-69
2022/05/16 04:42:40;;;;;;;2.75;2.25;;;;;;;;;;5033004;28;20053;-68
2022/05/16 04:43:24;;;;;;;4.85;2.38;;;;;;;;;;5032954;28;20108;-69
2022/05/16 04:45:51;;;;;;;4.97;2.42;;;;;;;;;;5032869;28;20053;-67
2022/05/16 04:48:17;;;;;;;5.18;2.55;;;;;;;;;;5032578;28;20053;-68
2022/05/16 04:50:44;;;;;;;5.35;2.65;;;;;;;;;;5032713;28;20049;-68
2022/05/16 04:53:10;;;;;;;6.15;2.65;;;;;;;;;;5032863;28;20049;-67
2022/05/16 04:55:37;;;;;;;4.88;2.30;;;;;;;;;;5032781;28;20088;-68
2022/05/16 04:58:04;;;;;;;4.80;2.40;;;;;;;;;;5032560;28;20049;-68
2022/05/16 05:00:30;;;;;;;5.40;2.40;;;;;;;;;;5032837;28;20057;-68
2022/05/16 05:02:57;;;;;;;5.70;2.45;;;;;;;;;;5032585;28;20057;-67
2022/05/16 05:05:24;;;;;;;8.82;3.20;;;;;;;;;;5031499;28;20186;-68
2022/05/16 05:07:50;;;;;;;7.40;3.15;;;;;;;;;;5032443;28;20072;-68
2022/05/16 05:16:01;;;;;;;4.55;2.30;;;;;;;;;;5032555;28;20416;-68
2022/05/16 05:18:28;;;;;;;4.45;2.30;;;;;;;;;;5032220;28;20052;-69
2022/05/16 05:20:54;;;;;;;4.03;2.75;;;;;;;;;;5032132;28;20053;-68
2022/05/16 05:23:22;;;;;;;6.63;2.72;;;;;;;;;;5032246;28;20060;-68
2022/05/16 05:25:48;;;;;;;4.85;2.55;;;;;;;;;;5032452;28;20045;-68
2022/05/16 05:28:15;;;;;;;4.90;2.88;;;;;;;;;;5032246;28;20393;-68
2022/05/16 05:30:41;;;;;;;3.33;2.35;;;;;;;;;;5032332;28;20049;-69
2022/05/16 05:33:08;;;;;;;5.03;2.70;;;;;;;;;;5031980;28;20088;-69
2022/05/16 05:35:35;;;;;;;2.78;2.40;;;;;;;;;;5030899;28;20060;-68
2022/05/16 05:38:02;;;;;;;4.38;2.40;;;;;;;;;;5032339;28;20347;-68
2022/05/16 05:40:28;;;;;;;4.05;2.63;;;;;;;;;;5032661;28;20132;-68
2022/05/16 05:42:55;;;;;;;6.43;2.95;;;;;;;;;;5032019;28;20053;-68
2022/05/16 05:45:22;;;;;;;5.35;2.70;;;;;;;;;;5032078;28;20068;-68
2022/05/16 05:47:49;;;;;;;8.43;2.90;;;;;;;;;;5031757;28;20045;-68
2022/05/16 05:50:15;;;;;;;9.70;2.88;;;;;;;;;;5031893;28;20057;-68
2022/05/16 05:52:42;;;;;;;6.90;2.78;;;;;;;;;;5031893;28;20049;-68
2022/05/16 05:55:08;;;;;;;4.72;2.88;;;;;;;;;;5031903;28;20046;-69
2022/05/16 05:57:35;;;;;;;7.38;2.70;;;;;;;;;;5031894;28;20080;-68
2022/05/16 06:00:04;;;;;;;4.25;2.78;;;;;;;;;;5031740;28;20049;-68
2022/05/16 06:02:30;;;;;;;4.57;2.60;;;;;;;;;;5030421;28;20103;-68
2022/05/16 06:04:57;;;;;;;3.33;3.03;;;;;;;;;;5031564;28;20092;-68
2022/05/16 06:07:23;;;;;;;6.30;2.72;;;;;;;;;;5031754;28;20119;-68
2022/05/16 06:09:50;;;;;;;4.25;2.60;;;;;;;;;;5031725;28;20050;-68
2022/05/16 06:12:16;;;;;;;5.80;2.50;;;;;;;;;;5031601;28;20538;-68
2022/05/16 06:14:43;;;;;;;3.80;2.35;;;;;;;;;;5031444;28;20466;-69
2022/05/16 06:17:11;;;;;;;2.53;2.03;;;;;;;;;;5031531;28;20048;-68
2022/05/16 06:19:38;;;;;;;5.97;2.92;;;;;;;;;;5031432;28;20064;-68
2022/05/16 06:22:05;;;;;;;6.32;3.08;;;;;;;;;;5031642;28;20049;-66
2022/05/16 06:27:17;;;;;;;5.50;2.85;;;;;;;;;;5035461;28;20046;-68
2022/05/16 06:29:44;;;;;;;4.88;2.65;;;;;;;;;;5035355;28;20143;-68
2022/05/16 06:32:10;;;;;;;2.78;2.45;;;;;;;;;;5035305;28;20053;-68
2022/05/16 06:34:37;;;;;;;4.97;2.78;;;;;;;;;;5035522;28;20643;-68
2022/05/16 06:37:04;;;;;;;14.88;4.03;;;;;;;;;;5035454;28;20084;-68
2022/05/16 06:39:30;;;;;;;8.10;2.80;;;;;;;;;;5035356;28;20045;-68
2022/05/16 06:41:57;;;;;;;6.03;2.60;;;;;;;;;;5035064;28;20132;-68
2022/05/16 06:44:23;;;;;;;4.88;2.67;;;;;;;;;;5035137;28;20103;-68
2022/05/16 06:46:50;;;;;;;4.18;2.47;;;;;;;;;;5035154;28;20483;-68
2022/05/16 06:49:17;;;;;;;4.65;2.80;;;;;;;;;;5034883;28;20049;-68
2022/05/16 06:51:43;;;;;;;4.80;3.08;;;;;;;;;;5035136;28;20061;-68
2022/05/16 06:54:10;;;;;;;5.88;2.60;;;;;;;;;;5034998;28;20053;-69
2022/05/16 06:56:36;;;;;;;6.82;2.45;;;;;;;;;;5035548;28;20050;-67
2022/05/16 06:59:03;;;;;;;3.65;2.45;;;;;;;;;;5034816;28;20060;-68
2022/05/16 07:01:30;;;;;;;6.35;1.90;;;;;;;;;;5034946;28;20783;-68
2022/05/16 07:03:56;;;;;;;4.20;2.28;;;;;;;;;;5034911;28;20053;-68
2022/05/16 07:06:23;;;;;;;4.72;2.10;;;;;;;;;;5034973;28;20092;-68
2022/05/16 07:08:50;;;;;;;4.55;2.28;;;;;;;;;;5034741;28;20103;-68
2022/05/16 07:11:16;;;;;;;2.58;1.98;;;;;;;;;;5034673;28;20467;-68
2022/05/16 07:13:43;;;;;;;7.22;3.45;;;;;;;;;;5034498;28;20108;-68
2022/05/16 07:16:09;;;;;;;5.38;2.17;;;;;;;;;;5034774;28;20102;-67
2022/05/16 07:18:36;;;;;;;2.67;2.35;;;;;;;;;;5034395;28;20042;-69
2022/05/16 07:21:04;;;;;;;6.43;2.10;;;;;;;;;;5034435;28;20099;-67
2022/05/16 07:23:31;;;;;;;5.85;2.58;;;;;;;;;;5034542;28;20095;-68
2022/05/16 07:28:43;;;;;;;2.95;2.05;;;;;;;;;;5034540;28;20042;-69
2022/05/16 07:31:10;;;;;;;3.10;1.90;;;;;;;;;;5034282;28;20500;-68
2022/05/16 07:33:37;;;;;;;3.58;2.30;;;;;;;;;;5034239;28;20049;-68
2022/05/16 07:36:04;;;;;;;5.65;1.92;;;;;;;;;;5034417;28;20054;-68
2022/05/16 07:38:31;;;;;;;2.58;2.03;;;;;;;;;;5034081;28;20100;-68
2022/05/16 07:40:58;;;;;;;2.80;2.10;;;;;;;;;;5034301;28;20076;-68
2022/05/16 07:43:25;;;;;;;5.28;2.38;;;;;;;;;;5034183;28;20426;-68
2022/05/16 07:45:52;;;;;;;3.08;2.28;;;;;;;;;;5034099;28;20500;-68
2022/05/16 07:48:19;;;;;;;4.60;2.03;;;;;;;;;;5033971;28;20041;-68
2022/05/16 07:50:46;;;;;;;2.88;2.30;;;;;;;;;;5033901;28;20467;-68
2022/05/16 07:53:14;;;;;;;4.03;2.17;;;;;;;;;;5034326;28;20049;-68
2022/05/16 07:55:43;;;;;;;6.53;2.53;;;;;;;;;;5033833;28;20095;-67
2022/05/16 07:58:10;;;;;;;5.85;2.75;;;;;;;;;;5033760;28;20057;-68
2022/05/16 08:00:37;;;;;;;4.35;2.50;;;;;;;;;;5033823;28;20056;-68
2022/05/16 08:03:04;;;;;;;4.53;2.78;;;;;;;;;;5033568;28;20132;-68
2022/05/16 08:05:33;;;;;;;9.07;3.00;;;;;;;;;;5033641;28;20045;-68
2022/05/16 08:10:46;;;;;;;4.15;2.67;;;;;;;;;;5033485;28;20574;-68
2022/05/16 08:13:12;;;;;;;3.15;2.17;;;;;;;;;;5033693;28;20057;-68
2022/05/16 08:15:40;;;;;;;4.65;2.58;;;;;;;;;;5033648;28;20050;-68
2022/05/16 08:18:07;;;;;;;4.90;2.45;;;;;;;;;;5033278;28;20057;-68
2022/05/16 08:20:35;;;;;;;3.03;2.50;;;;;;;;;;5033371;28;20492;-68
2022/05/16 08:23:02;;;;;;;7.40;2.75;;;;;;;;;;5033296;28;20132;-67
2022/05/16 08:25:28;;;;;;;8.50;2.67;;;;;;;;;;5033453;28;20111;-68
2022/05/16 08:27:55;;;;;;;5.72;3.00;;;;;;;;;;5033096;28;20053;-68
2022/05/16 08:30:23;;;;;;;5.65;2.30;;;;;;;;;;5033287;28;20108;-68
2022/05/16 08:32:50;;;;;;;6.70;2.72;;;;;;;;;;5032942;28;20060;-65
2022/05/16 08:35:18;;;;;;;4.43;2.83;;;;;;;;;;5032106;28;20496;-65
2022/05/16 08:40:38;;;;;;;3.25;2.50;;;;;;;;;;5033074;28;20540;-69
2022/05/16 08:43:26;;;;;;;4.35;2.75;;;;;;;;;;5031710;28;20054;-69
2022/05/16 08:46:08;;;;;;;5.38;2.63;;;;;;;;;;5048163;28;20103;-68
2022/05/16 08:48:40;;;;;;;3.73;2.57;;;;;;;;;;5047905;28;20061;-69
2022/05/16 08:51:09;;;;;;;3.90;2.47;;;;;;;;;;5031349;28;20095;-68
2022/05/16 08:53:45;;;;;;;5.38;2.28;;;;;;;;;;5031403;28;20062;-68
2022/05/16 08:56:33;;;;;;;2.83;2.47;;;;;;;;;;5031745;28;20046;-68
2022/05/16 08:59:10;;;;;;;4.60;2.50;;;;;;;;;;5031520;28;20416;-68
2022/05/16 09:01:47;;;;;;;3.35;2.70;;;;;;;;;;5031380;28;20057;-69
2022/05/16 09:04:33;;;;;;;5.03;2.83;;;;;;;;;;5032542;28;20053;-68
2022/05/16 09:07:16;;;;;;;5.82;2.55;;;;;;;;;;5033887;28;20060;-69
2022/05/16 09:10:13;;;;;;;5.05;2.83;;;;;;;;;;5031335;28;20041;-68
2022/05/16 09:12:57;;;;;;;6.43;3.03;;;;;;;;;;5031324;28;20057;-68
2022/05/16 09:15:49;;;;;;;3.63;2.80;;;;;;;;;;5031363;28;20482;-68
2022/05/16 09:18:24;;;;;;;5.75;3.40;;;;;;;;;;5032374;28;20045;-68
2022/05/16 09:21:14;;;;;;;5.95;3.40;;;;;;;;;;5031039;28;20420;-68
2022/05/16 09:23:44;;;;;;;4.53;2.90;;;;;;;;;;5047613;28;20072;-68
2022/05/16 09:26:48;;;;;;;3.25;2.78;;;;;;;;;;5032344;28;20049;-67
2022/05/16 09:29:31;;;;;;;4.65;3.08;;;;;;;;;;5031970;28;20096;-65
2022/05/16 09:32:33;;;;;;;6.13;3.50;;;;;;;;;;5031963;28;20053;-68
2022/05/16 09:35:00;;;;;;;3.88;3.00;;;;;;;;;;5032103;28;20053;-68
2022/05/16 09:37:28;;;;;;;4.78;3.03;;;;;;;;;;5031993;28;20415;-67
2022/05/16 09:39:54;;;;;;;6.88;3.42;;;;;;;;;;5032361;28;20049;-66
2022/05/16 09:42:22;;;;;;;7.65;3.13;;;;;;;;;;5032485;28;20057;-66
2022/05/16 09:45:12;;;;;;;5.68;2.97;;;;;;;;;;5030690;28;20049;-67
2022/05/16 09:47:40;;;;;;;3.38;3.03;;;;;;;;;;5030618;28;20135;-67
2022/05/16 09:50:24;;;;;;;3.20;2.90;;;;;;;;;;5055170;22;20052;-69
2022/05/16 09:53:07;;;;;;;11.10;3.55;;;;;;;;;;5031773;28;20124;-69
2022/05/16 09:55:51;;;;;;;7.75;3.25;;;;;;;;;;5032000;28;20423;-69
2022/05/16 09:58:19;;;;;;;7.70;3.63;;;;;;;;;;5030915;28;20041;-69
2022/05/16 10:01:03;;;;;;;5.47;3.35;;;;;;;;;;5031542;28;20059;-68
2022/05/16 10:03:44;;;;;;;6.38;3.13;;;;;;;;;;5031852;28;20053;-69
2022/05/16 10:06:29;;;;;;;5.20;3.30;;;;;;;;;;5031805;28;20053;-70
2022/05/16 10:08:55;;;;;;;4.32;3.13;;;;;;;;;;5030647;28;20099;-70
2022/05/16 10:11:26;;;;;;;5.35;3.85;;;;;;;;;;5030562;28;20057;-71
2022/05/16 10:13:54;;;;;;;3.97;3.00;;;;;;;;;;5031022;28;20499;-69
2022/05/16 10:16:21;;;;;;;3.63;3.05;;;;;;;;;;5031666;28;20554;-70
2022/05/16 10:18:57;;;;;;;6.93;3.60;;;;;;;;;;5030487;28;20077;-70
2022/05/16 10:21:36;;;;;;;6.90;3.47;;;;;;;;;;5030377;28;20054;-70
2022/05/16 10:24:04;;;;;;;5.30;3.50;;;;;;;;;;5031747;28;20107;-70
2022/05/16 10:26:39;;;;;;;8.35;3.58;;;;;;;;;;5030324;28;20083;-70
2022/05/16 10:29:15;;;;;;;5.05;3.35;;;;;;;;;;5030277;28;20052;-70
2022/05/16 10:34:51;;;;;;;6.80;3.78;;;;;;;;;;5030958;28;20115;-70
2022/05/16 10:37:19;;;;;;;4.63;3.40;;;;;;;;;;5031684;28;20045;-70
2022/05/16 10:39:48;;;;;;;8.20;3.28;;;;;;;;;;5030130;28;20485;-70
2022/05/16 10:42:25;;;;;;;4.45;3.00;;;;;;;;;;5030681;28;20049;-70
2022/05/16 10:45:12;;;;;;;7.60;3.45;;;;;;;;;;5030565;28;20080;-71
2022/05/16 10:47:57;;;;;;;5.10;2.88;;;;;;;;;;5030287;28;20463;-70
2022/05/16 10:50:29;;;;;;;5.45;2.97;;;;;;;;;;5030111;28;20049;-70
2022/05/16 10:53:02;;;;;;;5.18;3.10;;;;;;;;;;5046419;28;20107;-70
2022/05/16 10:55:31;;;;;;;4.00;2.70;;;;;;;;;;5046616;28;20045;-70
2022/05/16 10:58:25;;;;;;;4.68;2.72;;;;;;;;;;5029955;28;20492;-70
2022/05/16 11:01:12;;;;;;;5.10;2.65;;;;;;;;;;5029773;28;20049;-70
2022/05/16 11:03:46;;;;;;;5.05;2.67;;;;;;;;;;5031193;28;20412;-71
2022/05/16 11:06:22;;;;;;;3.35;2.35;;;;;;;;;;5029973;28;20056;-70
2022/05/16 11:09:10;;;;;;;6.20;2.30;;;;;;;;;;5031059;28;20042;-70
2022/05/16 11:11:43;;;;;;;5.13;2.20;;;;;;;;;;5034914;28;20059;-71
2022/05/16 11:14:47;;;;;;;6.25;2.22;;;;;;;;;;5034721;28;20057;-70
2022/05/16 11:17:22;;;;;;;5.72;2.20;;;;;;;;;;5034637;28;20099;-70
2022/05/16 11:19:56;;;;;;;4.13;2.20;;;;;;;;;;5033384;28;20045;-71
2022/05/16 11:22:25;;;;;;;8.07;2.47;;;;;;;;;;5034180;28;20049;-70
2022/05/16 11:25:07;;;;;;;5.00;2.35;;;;;;;;;;5033325;28;20496;-69
2022/05/16 11:27:50;;;;;;;5.65;2.15;;;;;;;;;;5034518;28;20413;-69
2022/05/16 11:30:28;;;;;;;5.68;2.60;;;;;;;;;;5033428;28;20095;-70
2022/05/16 11:33:18;;;;;;;6.90;2.40;;;;;;;;;;5033284;28;20053;-70
2022/05/16 11:35:47;;;;;;;6.00;2.80;;;;;;;;;;5034436;28;20056;-70
2022/05/16 11:38:40;;;;;;;5.85;2.30;;;;;;;;;;5034109;28;20049;-71
2022/05/16 11:41:40;;;;;;;3.75;2.03;;;;;;;;;;5015978;28;20092;-70
2022/05/16 11:44:36;;;;;;;9.13;3.00;;;;;;;;;;5035300;28;20049;-70
2022/05/16 11:47:30;;;;;;;13.27;2.97;;;;;;;;;;5033303;28;20462;-70
2022/05/16 11:50:27;;;;;;;8.00;2.63;;;;;;;;;;5033759;28;20136;-69
2022/05/16 11:53:17;;;;;;;6.60;2.28;;;;;;;;;;5032889;28;20053;-70
2022/05/16 12:01:30;;;;;;;4.57;1.63;;;;;;;;;;5032732;28;20057;-70
2022/05/16 12:04:11;;;;;;;2.50;1.52;;;;;;;;;;5034163;28;20144;-69
2022/05/16 12:06:45;;;;;;;3.40;1.50;;;;;;;;;;5034022;28;20553;-70
2022/05/16 12:09:24;;;;;;;4.75;1.77;;;;;;;;;;5033536;28;20099;-70
2022/05/16 12:12:05;;;;;;;4.55;1.30;;;;;;;;;;5033779;28;20447;-70
2022/05/16 12:14:34;;;;;;;7.90;1.55;;;;;;;;;;5032500;28;20061;-70
2022/05/16 12:17:05;;;;;;;5.70;1.45;;;;;;;;;;5048892;28;20419;-70
2022/05/16 12:19:40;;;;;;;4.15;1.63;;;;;;;;;;5033545;28;20045;-70
2022/05/16 12:22:09;;;;;;;4.45;1.83;;;;;;;;;;5031380;28;20049;-70
2022/05/16 12:24:41;;;;;;;2.75;1.40;;;;;;;;;;5048961;28;20045;-70
2022/05/16 12:27:09;;;;;;;5.15;1.48;;;;;;;;;;5034048;28;20095;-69
2022/05/16 12:29:42;;;;;;;3.17;1.40;;;;;;;;;;5033762;28;20072;-70
2022/05/16 12:32:09;;;;;;;7.30;1.02;;;;;;;;;;5033122;28;20046;-70
2022/05/16 12:34:36;;;;;;;6.63;2.05;;;;;;;;;;5048446;28;20488;-70
2022/05/16 12:37:11;;;;;;;4.47;1.63;;;;;;;;;;5033488;28;20053;-71
2022/05/16 12:40:06;;;;;;;3.47;1.80;;;;;;;;;;5032214;28;20099;-70
2022/05/16 12:43:15;;;;;;;4.72;1.85;;;;;;;;;;5032909;28;20096;-70
2022/05/16 12:46:38;;;;;;;2.05;1.25;;;;;;;;;;5034640;28;20061;-70
2022/05/16 12:49:05;;;;;;;6.32;1.58;;;;;;;;;;4991056;28;20484;-71
2022/05/16 12:51:50;;;;;;;2.78;1.65;;;;;;;;;;5025110;28;20057;-70
2022/05/16 12:54:35;;;;;;;2.35;1.30;;;;;;;;;;5033093;28;20107;-70
2022/05/16 12:57:38;;;;;;;4.65;1.63;;;;;;;;;;5032834;28;20497;-69
2022/05/16 13:00:32;;;;;;;2.35;1.58;;;;;;;;;;5031771;28;20053;-70
2022/05/16 13:03:35;;;;;;;3.97;1.50;;;;;;;;;;5031571;28;20050;-70
2022/05/16 13:06:04;;;;;;;5.82;2.17;;;;;;;;;;5031836;28;20412;-71
2022/05/16 13:08:50;;;;;;;3.65;1.70;;;;;;;;;;5046470;28;20053;-70
2022/05/16 13:11:26;;;;;;;4.75;1.90;;;;;;;;;;5032452;28;20427;-71
2022/05/16 13:14:13;;;;;;;10.43;3.25;;;;;;;;;;5031300;28;20071;-71
2022/05/16 13:16:51;;;;;;;4.60;2.15;;;;;;;;;;5031253;28;20049;-70
2022/05/16 13:19:18;;;;;;;3.80;2.17;;;;;;;;;;5032438;28;20493;-70
2022/05/16 13:21:56;;;;;;;4.05;2.03;;;;;;;;;;5047762;28;20475;-71
2022/05/16 13:24:24;;;;;;;5.30;2.10;;;;;;;;;;5032484;28;20057;-69
2022/05/16 13:30:01;;;;;;;3.15;1.60;;;;;;;;;;5042606;28;20552;-71
2022/05/16 13:32:29;;;;;;;2.10;1.15;;;;;;;;;;5031942;28;20045;-71
2022/05/16 13:35:02;;;;;;;5.03;1.67;;;;;;;;;;5032130;28;20053;-70
2022/05/16 13:37:32;;;;;;;3.78;1.40;;;;;;;;;;5032258;28;20049;-71
2022/05/16 13:40:02;;;;;;;2.40;1.30;;;;;;;;;;5032243;28;20470;-71
2022/05/16 13:42:31;;;;;;;3.15;1.48;;;;;;;;;;5032056;28;20053;-71
2022/05/16 13:44:58;;;;;;;4.78;1.38;;;;;;;;;;5047471;28;20045;-71
2022/05/16 13:47:27;;;;;;;6.55;1.50;;;;;;;;;;5032025;28;20049;-70
2022/05/16 13:49:55;;;;;;;3.85;1.45;;;;;;;;;;5031752;28;20061;-71
2022/05/16 13:52:27;;;;;;;7.22;1.42;;;;;;;;;;5032058;28;20050;-71
2022/05/16 13:54:55;;;;;;;3.55;1.70;;;;;;;;;;5031880;28;20518;-71
2022/05/16 13:57:23;;;;;;;2.60;1.55;;;;;;;;;;5031882;28;20060;-71
2022/05/16 14:00:28;;;;;;;2.10;1.30;;;;;;;;;;5046818;28;20496;-71
2022/05/16 14:02:58;;;;;;;3.88;1.27;;;;;;;;;;5029984;28;20269;-71
2022/05/16 14:05:30;;;;;;;3.50;1.27;;;;;;;;;;5030843;28;20053;-71
2022/05/16 14:08:04;;;;;;;3.40;1.67;;;;;;;;;;5030605;28;20053;-70
2022/05/16 14:10:33;;;;;;;6.07;1.60;;;;;;;;;;5046776;28;20507;-71
2022/05/16 14:13:02;;;;;;;3.60;1.67;;;;;;;;;;5046976;28;20139;-71
2022/05/16 14:15:36;;;;;;;6.10;1.60;;;;;;;;;;5031893;28;20488;-71
2022/05/16 14:18:12;;;;;;;4.22;1.20;;;;;;;;;;5031272;28;20463;-71
2022/05/16 14:20:47;;;;;;;9.07;1.80;;;;;;;;;;5031428;28;20096;-71
2022/05/16 14:23:22;;;;;;;2.42;1.20;;;;;;;;;;5031897;28;20053;-71
2022/05/16 14:25:53;;;;;;;2.63;1.63;;;;;;;;;;5031702;28;20049;-71
2022/05/16 14:28:22;;;;;;;4.55;1.50;;;;;;;;;;5031467;28;20523;-71
2022/05/16 14:30:58;;;;;;;2.70;1.67;;;;;;;;;;5031402;28;20050;-71
2022/05/16 14:33:27;;;;;;;2.70;1.95;;;;;;;;;;5031813;28;20053;-71
2022/05/16 14:36:08;;;;;;;5.85;1.92;;;;;;;;;;5031083;28;20105;-71
2022/05/16 14:38:52;;;;;;;3.28;1.55;;;;;;;;;;5030565;28;20101;-70
2022/05/16 14:41:26;;;;;;;6.88;1.90;;;;;;;;;;5031311;28;20045;-70
2022/05/16 14:44:04;;;;;;;3.53;1.80;;;;;;;;;;5031583;28;20116;-70
2022/05/16 14:46:42;;;;;;;2.85;1.70;;;;;;;;;;5035524;28;20049;-70
2022/05/16 14:49:14;;;;;;;3.78;1.77;;;;;;;;;;5035040;28;20045;-70
2022/05/16 14:51:41;;;;;;;4.15;1.95;;;;;;;;;;5035147;28;20056;-69
2022/05/16 14:54:16;;;;;;;3.72;2.30;;;;;;;;;;5033889;28;20091;-70
2022/05/16 14:56:42;;;;;;;3.58;2.15;;;;;;;;;;5038157;28;20053;-70
2022/05/16 14:59:09;;;;;;;5.72;2.83;;;;;;;;;;5035262;28;20088;-70
2022/05/16 15:04:21;;;;;;;5.85;2.22;;;;;;;;;;5034952;28;20453;-70
2022/05/16 15:06:48;;;;;;;5.43;2.25;;;;;;;;;;5034999;28;20054;-70
2022/05/16 15:09:16;;;;;;;7.60;2.72;;;;;;;;;;5034852;28;20519;-70
2022/05/16 15:11:49;;;;;;;6.10;1.90;;;;;;;;;;5035228;28;20049;-69
2022/05/16 15:14:17;;;;;;;3.63;1.85;;;;;;;;;;5050318;28;20049;-70
2022/05/16 15:16:44;;;;;;;3.67;2.30;;;;;;;;;;5034818;28;20508;-70
2022/05/16 15:19:11;;;;;;;3.55;1.88;;;;;;;;;;5034489;28;20397;-70
2022/05/16 15:21:39;;;;;;;4.97;2.10;;;;;;;;;;5034784;28;20049;-70
2022/05/16 15:24:07;;;;;;;5.18;2.38;;;;;;;;;;5034478;28;20466;-70
2022/05/16 15:26:34;;;;;;;3.95;2.00;;;;;;;;;;5033477;28;20050;-70
2022/05/16 15:29:01;;;;;;;3.95;2.47;;;;;;;;;;5034592;28;20397;-70
2022/05/16 15:31:27;;;;;;;4.68;2.10;;;;;;;;;;5034178;28;20095;-69
2022/05/16 15:33:57;;;;;;;4.78;2.20;;;;;;;;;;5034939;28;20050;-69
2022/05/16 15:36:25;;;;;;;3.25;1.80;;;;;;;;;;5034522;28;20492;-69
2022/05/16 15:38:51;;;;;;;7.18;2.13;;;;;;;;;;5034308;28;20049;-70
2022/05/16 15:41:18;;;;;;;4.63;1.98;;;;;;;;;;5034227;28;20460;-69
2022/05/16 15:43:45;;;;;;;3.85;1.98;;;;;;;;;;5034253;28;20049;-69
2022/05/16 15:46:13;;;;;;;4.15;1.88;;;;;;;;;;5034063;28;20060;-70
2022/05/16 15:48:41;;;;;;;3.85;1.88;;;;;;;;;;5034375;28;20111;-69
2022/05/16 15:51:10;;;;;;;6.80;2.10;;;;;;;;;;5032651;28;20492;-69
2022/05/16 15:53:39;;;;;;;5.13;2.20;;;;;;;;;;5033045;28;20405;-69